Meteoliendo - El tiempo en Liendo - Informes METAR de Aeropuertos cercanos

Informes METAR de Aeropuertos cercanos

 

LEXJ - Santander
Actualización: 25/06/2017 01:30
Cubierto
Cubierto
 Viento del ONO
Viento: ONO 4 km/h
Temperatura: 19°C
Rocío: 16°C
Humedad: 83%
Barómetro: 1022 hPa
Clouds: Cubierto
Visibility: 10 km
Cloud details: Few Clouds 671 m
Cubierto 853 m
2017/06/24 23:30 LEXJ 242330Z AUTO 29002KT 9999 FEW022/// OVC028/// 19/16 Q1022
LEAS - Asturias/Aviles
Actualización: 25/06/2017 02:00
Parcialmente nuboso
Parcialmente nuboso
 Viento del varies
Viento: varies 2 km/h
Temperatura: 15°C
Rocío: 15°C
Humedad: 100%
Barómetro: 1021 hPa
Clouds: Parcialmente nuboso
Visibility: 7 km
Cloud details: Parcialmente nuboso 1585 m
2017/06/25 00:00 LEAS 250000Z VRB01KT 7000 SCT052 15/15 Q1021 NOSIG
LEBB - Bilbao
Actualización: 25/06/2017 02:00
Despejado
Despejado
 Viento del E
Viento: E 2 km/h
Temperatura: 17°C
Rocío: 16°C
Humedad: 94%
Barómetro: 1022 hPa
Clouds: Despejado
Visibility: 10 km
2017/06/25 00:00 LEBB 250000Z AUTO 09001KT 9999 NCD 17/16 Q1022
 
LEBG - Burgos/Villafría
Actualización: 25/06/2017 01:30
Muy nuboso
Muy nuboso
 Viento del NE
Viento: NE 26 km/h
Temperatura: 14°C
Rocío: 13°C
Humedad: 94%
Barómetro: 1023 hPa
Clouds: Muy nuboso
Visibility: 10 km
Cloud details: Muy nuboso 213 m
2017/06/24 23:30 LEBG 242330Z AUTO 04014KT 9999 BKN007/// 14/13 Q1023
LELO - Logroño
Actualización: 24/06/2017 23:00
NOT Current
Parcialmente nuboso
Parcialmente nuboso
 Viento del O
Viento: O 7 km/h
Temperatura: 21°C
Rocío: 14°C
Humedad: 64%
Barómetro: 1021 hPa
Clouds: Parcialmente nuboso
Visibility: 10 km
Cloud details: Parcialmente nuboso 1524 m
2017/06/24 21:00 LELO 242100Z 28004KT 230V350 9999 SCT050 21/14 Q1021
LEPP - Pamplona
Actualización: 25/06/2017 02:00
Despejado
Despejado
 Viento del NO
Viento: NO 13 km/h
Temperatura: 17°C
Rocío: 14°C
Humedad: 83%
Barómetro: 1022 hPa
Resumen: Despejado
Visibility: greater than 10 km
2017/06/25 00:00 LEPP 250000Z AUTO 32007KT CAVOK 17/14 Q1022
 
LESO - San Sebastián
Actualización: 25/06/2017 02:00
Despejado
Despejado
 Viento del S
Viento: S 4 km/h
Temperatura: 19°C
Rocío: 17°C
Humedad: 88%
Barómetro: 1022 hPa
Resumen: Despejado
Visibility: greater than 10 km
2017/06/25 00:00 LESO 250000Z AUTO 17002KT CAVOK 19/17 Q1022
LEST - Santiago de Compostela
Actualización: 25/06/2017 02:00
Few Clouds
Few Clouds
 Viento del varies
Viento: varies 2 km/h
Temperatura: 13°C
Rocío: 12°C
Humedad: 94%
Barómetro: 1021 hPa
Clouds: Few Clouds
Visibility: 10 km
Cloud details: Few Clouds 366 m
2017/06/25 00:00 LEST 250000Z VRB01KT 9999 FEW012 13/12 Q1021 NOSIG
LEVT - Vitoria
Actualización: 25/06/2017 02:00
Parcialmente nuboso
Parcialmente nuboso
 Viento del NE
Viento: NE 2 km/h
Temperatura: 16°C
Rocío: 13°C
Humedad: 83%
Barómetro: 1022 hPa
Clouds: Parcialmente nuboso
Visibility: 10 km
Cloud details: Parcialmente nuboso 762 m
2017/06/25 00:00 LEVT 250000Z 05001KT 9999 SCT025 16/13 Q1022